createdAt,value
2018-09-23T00:01:23.765Z,7.30
2018-09-23T00:03:51.547Z,7.13
2018-09-23T00:06:19.334Z,8.63
2018-09-23T00:08:47.135Z,9.03
2018-09-23T00:11:14.954Z,9.27
2018-09-23T00:13:42.738Z,9.10
2018-09-23T00:16:10.713Z,8.43
2018-09-23T00:18:38.483Z,6.43
2018-09-23T00:21:06.506Z,5.67
2018-09-23T00:23:34.320Z,4.90
2018-09-23T00:26:02.509Z,4.30
2018-09-23T00:28:30.335Z,4.37
2018-09-23T00:30:58.116Z,4.37
2018-09-23T00:33:25.921Z,10.90
2018-09-23T00:35:53.694Z,18.50
2018-09-23T00:38:21.608Z,21.27
2018-09-23T00:40:49.459Z,17.90
2018-09-23T00:43:17.302Z,14.43
2018-09-23T00:45:45.098Z,14.00
2018-09-23T00:48:12.971Z,13.17
2018-09-23T00:50:40.770Z,11.53
2018-09-23T00:53:08.635Z,9.50
2018-09-23T00:55:36.441Z,9.90
2018-09-23T00:58:04.253Z,9.27
2018-09-23T01:00:32.164Z,9.77
2018-09-23T01:02:59.952Z,9.20
2018-09-23T01:05:27.796Z,9.57
2018-09-23T01:07:55.605Z,9.13
2018-09-23T01:10:23.391Z,8.93
2018-09-23T01:12:51.190Z,8.90
2018-09-23T01:15:18.974Z,8.10
2018-09-23T01:17:46.825Z,8.07
2018-09-23T01:20:14.609Z,7.67
2018-09-23T01:22:42.398Z,8.27
2018-09-23T01:25:10.196Z,7.50
2018-09-23T01:27:38.032Z,6.77
2018-09-23T01:30:05.879Z,6.57
2018-09-23T01:32:33.647Z,6.40
2018-09-23T01:35:01.429Z,6.10
2018-09-23T01:37:29.248Z,6.67
2018-09-23T01:39:57.131Z,6.57
2018-09-23T01:42:24.906Z,6.23
2018-09-23T01:44:52.688Z,6.10
2018-09-23T01:47:20.494Z,5.93
2018-09-23T01:49:48.271Z,6.07
2018-09-23T01:52:16.094Z,6.70
2018-09-23T01:54:43.883Z,5.90
2018-09-23T01:57:11.679Z,5.57
2018-09-23T01:59:39.484Z,6.03
2018-09-23T02:02:07.343Z,5.50
2018-09-23T02:04:35.102Z,6.30
2018-09-23T02:07:02.901Z,5.60
2018-09-23T02:09:30.690Z,5.60
2018-09-23T02:11:58.542Z,9.23
2018-09-23T02:14:26.466Z,6.13
2018-09-23T02:16:54.272Z,6.33
2018-09-23T02:19:22.083Z,6.23
2018-09-23T02:21:49.906Z,5.77
2018-09-23T02:24:17.835Z,5.97
2018-09-23T02:26:45.669Z,5.70
2018-09-23T02:29:14.249Z,6.07
2018-09-23T02:31:42.104Z,5.87
2018-09-23T02:34:09.903Z,6.37
2018-09-23T02:36:37.704Z,6.00
2018-09-23T02:39:06.750Z,5.90
2018-09-23T02:41:34.583Z,6.23
2018-09-23T02:44:02.383Z,5.63
2018-09-23T02:46:30.236Z,6.13
2018-09-23T02:48:58.004Z,5.73
2018-09-23T02:51:25.823Z,7.10
2018-09-23T02:53:53.671Z,7.50
2018-09-23T02:56:21.482Z,7.70
2018-09-23T02:58:49.296Z,8.57
2018-09-23T03:01:17.087Z,8.40
2018-09-23T03:03:44.874Z,7.07
2018-09-23T03:06:12.722Z,6.70
2018-09-23T03:08:40.652Z,7.20
2018-09-23T03:11:08.568Z,7.27
2018-09-23T03:13:36.345Z,6.80
2018-09-23T03:16:04.182Z,7.10
2018-09-23T03:18:31.949Z,7.40
2018-09-23T03:20:59.808Z,6.80
2018-09-23T03:23:27.604Z,6.90
2018-09-23T03:25:55.453Z,6.73
2018-09-23T03:28:23.267Z,7.80
2018-09-23T03:30:51.047Z,9.03
2018-09-23T03:33:18.842Z,9.13
2018-09-23T03:35:46.991Z,9.97
2018-09-23T03:38:14.848Z,9.03
2018-09-23T03:40:42.626Z,10.07
2018-09-23T03:43:10.431Z,10.17
2018-09-23T03:45:38.293Z,9.90
2018-09-23T03:48:06.162Z,10.07
2018-09-23T03:50:33.991Z,9.67
2018-09-23T03:53:01.803Z,8.33
2018-09-23T03:55:29.605Z,8.63
2018-09-23T03:57:57.454Z,9.03
2018-09-23T04:00:25.256Z,9.10
2018-09-23T04:02:53.060Z,10.07
2018-09-23T04:05:20.862Z,9.93
2018-09-23T04:07:48.656Z,9.90
2018-09-23T04:10:16.521Z,9.70
2018-09-23T04:12:44.320Z,10.83
2018-09-23T04:15:12.119Z,10.10
2018-09-23T04:17:39.915Z,9.97
2018-09-23T04:20:07.748Z,10.97
2018-09-23T04:22:40.652Z,10.83
2018-09-23T04:25:08.503Z,10.30
2018-09-23T04:27:36.326Z,12.07
2018-09-23T04:30:04.173Z,11.40
2018-09-23T04:32:32.043Z,11.63
2018-09-23T04:34:59.831Z,9.47
2018-09-23T04:37:27.622Z,10.17
2018-09-23T04:39:55.418Z,9.20
2018-09-23T04:42:23.222Z,9.97
2018-09-23T04:44:51.043Z,9.03
2018-09-23T04:47:18.862Z,9.97
2018-09-23T04:49:46.707Z,9.37
2018-09-23T04:52:14.579Z,10.43
2018-09-23T04:54:42.433Z,9.77
2018-09-23T04:57:10.235Z,10.17
2018-09-23T04:59:38.016Z,9.27
2018-09-23T05:02:05.883Z,9.27
2018-09-23T05:04:33.670Z,9.73
2018-09-23T05:07:01.591Z,10.30
2018-09-23T05:09:29.436Z,10.33
2018-09-23T05:11:57.242Z,10.30
2018-09-23T05:14:25.104Z,9.90
2018-09-23T05:16:52.984Z,10.77
2018-09-23T05:19:20.871Z,9.83
2018-09-23T05:21:48.768Z,10.20
2018-09-23T05:24:16.566Z,10.40
2018-09-23T05:26:44.347Z,10.00
2018-09-23T05:29:12.199Z,9.77
2018-09-23T05:31:39.970Z,10.70
2018-09-23T05:34:07.765Z,11.40
2018-09-23T05:36:35.578Z,10.70
2018-09-23T05:39:04.484Z,11.13
2018-09-23T05:41:32.274Z,10.60
2018-09-23T05:44:00.133Z,11.07
2018-09-23T05:46:27.963Z,10.90
2018-09-23T05:48:55.786Z,11.20
2018-09-23T05:51:23.590Z,10.10
2018-09-23T05:53:51.386Z,10.67
2018-09-23T05:56:19.187Z,11.53
2018-09-23T05:58:47.005Z,11.23
2018-09-23T06:01:14.890Z,11.37
2018-09-23T06:03:42.761Z,12.23
2018-09-23T06:06:13.070Z,10.80
2018-09-23T06:08:40.979Z,11.57
2018-09-23T06:11:08.779Z,10.93
2018-09-23T06:13:36.582Z,12.20
2018-09-23T06:16:04.398Z,11.73
2018-09-23T06:18:32.287Z,11.40
2018-09-23T06:21:00.070Z,12.43
2018-09-23T06:23:27.866Z,10.23
2018-09-23T06:25:55.755Z,10.03
2018-09-23T06:28:23.548Z,10.33
2018-09-23T06:30:51.461Z,10.43
2018-09-23T06:33:19.322Z,10.47
2018-09-23T06:35:47.103Z,9.67
2018-09-23T06:38:14.908Z,11.17
2018-09-23T06:40:42.691Z,10.07
2018-09-23T06:43:10.540Z,10.43
2018-09-23T06:45:39.228Z,9.83
2018-09-23T06:48:07.064Z,8.87
2018-09-23T06:50:35.474Z,10.90
2018-09-23T06:53:03.660Z,11.23
2018-09-23T06:55:31.536Z,10.27
2018-09-23T06:57:59.531Z,14.80
2018-09-23T07:00:27.461Z,13.07
2018-09-23T07:02:55.332Z,11.93
2018-09-23T07:05:23.268Z,10.00
2018-09-23T07:07:51.541Z,12.10
2018-09-23T07:10:19.324Z,9.83
2018-09-23T07:12:47.148Z,8.87
2018-09-23T07:15:14.931Z,8.70
2018-09-23T07:17:42.742Z,8.47
2018-09-23T07:20:10.518Z,9.13
2018-09-23T07:22:38.360Z,7.70
2018-09-23T07:25:06.196Z,8.10
2018-09-23T07:27:34.159Z,8.27
2018-09-23T07:30:01.990Z,9.70
2018-09-23T07:32:29.738Z,9.57
2018-09-23T07:34:57.537Z,7.53
2018-09-23T07:37:25.329Z,8.83
2018-09-23T07:39:53.125Z,8.80
2018-09-23T07:42:20.903Z,8.10
2018-09-23T07:44:48.788Z,7.87
2018-09-23T07:47:16.618Z,8.37
2018-09-23T07:49:44.515Z,7.67
2018-09-23T07:52:12.284Z,8.03
2018-09-23T07:54:40.068Z,8.50
2018-09-23T07:57:07.851Z,8.00
2018-09-23T07:59:35.613Z,7.70
2018-09-23T08:02:03.399Z,6.87
2018-09-23T08:04:31.187Z,7.60
2018-09-23T08:06:59.056Z,7.60
2018-09-23T08:09:26.836Z,6.83
2018-09-23T08:11:54.623Z,7.63
2018-09-23T08:14:22.826Z,7.13
2018-09-23T08:16:51.133Z,6.47
2018-09-23T08:19:18.974Z,6.80
2018-09-23T08:21:46.716Z,6.97
2018-09-23T08:24:14.490Z,7.00
2018-09-23T08:26:42.323Z,5.53
2018-09-23T08:29:10.086Z,6.30
2018-09-23T08:31:37.939Z,6.10
2018-09-23T08:34:05.702Z,6.50
2018-09-23T08:36:33.480Z,6.50
2018-09-23T08:39:01.294Z,6.03
2018-09-23T08:41:29.193Z,6.50
2018-09-23T08:43:56.945Z,6.13
2018-09-23T08:46:25.006Z,6.40
2018-09-23T08:48:52.834Z,6.60
2018-09-23T08:51:20.711Z,6.80
2018-09-23T08:53:48.483Z,6.47
2018-09-23T08:56:16.246Z,7.23
2018-09-23T08:58:44.028Z,6.87
2018-09-23T09:01:11.777Z,6.23
2018-09-23T09:03:39.646Z,7.60
2018-09-23T09:06:07.446Z,6.60
2018-09-23T09:08:35.280Z,7.33
2018-09-23T09:11:03.065Z,6.60
2018-09-23T09:13:30.824Z,7.10
2018-09-23T09:15:58.631Z,6.80
2018-09-23T09:18:26.505Z,7.17
2018-09-23T09:20:54.233Z,7.00
2018-09-23T09:23:21.990Z,7.03
2018-09-23T09:25:49.844Z,6.50
2018-09-23T09:28:17.590Z,7.20
2018-09-23T09:30:45.358Z,7.43
2018-09-23T09:33:13.166Z,7.47
2018-09-23T09:35:40.937Z,7.17
2018-09-23T09:38:08.710Z,7.20
2018-09-23T09:40:36.469Z,7.20
2018-09-23T09:43:04.250Z,7.70
2018-09-23T09:45:32.010Z,7.27
2018-09-23T09:47:59.858Z,7.20
2018-09-23T09:50:27.615Z,7.90
2018-09-23T09:52:55.397Z,7.33
2018-09-23T09:55:23.299Z,8.27
2018-09-23T09:57:51.054Z,8.13
2018-09-23T10:00:23.972Z,8.30
2018-09-23T10:02:51.774Z,8.33
2018-09-23T10:05:19.563Z,8.13
2018-09-23T10:07:47.326Z,8.33
2018-09-23T10:10:15.193Z,7.70
2018-09-23T10:12:42.954Z,8.90
2018-09-23T10:15:10.792Z,7.77
2018-09-23T10:17:38.597Z,7.93
2018-09-23T10:20:06.483Z,8.40
2018-09-23T10:22:34.298Z,8.80
2018-09-23T10:25:02.069Z,7.90
2018-09-23T10:27:29.936Z,8.60
2018-09-23T10:29:57.711Z,8.27
2018-09-23T10:32:25.489Z,8.93
2018-09-23T10:34:53.847Z,8.87
2018-09-23T10:37:21.626Z,8.20
2018-09-23T10:39:49.426Z,8.40
2018-09-23T10:42:17.195Z,8.13
2018-09-23T10:44:45.022Z,9.10
2018-09-23T10:47:13.129Z,9.20
2018-09-23T10:49:41.327Z,8.17
2018-09-23T10:52:09.135Z,8.50
2018-09-23T10:54:36.970Z,8.43
2018-09-23T10:57:05.198Z,9.63
2018-09-23T10:59:33.096Z,9.23
2018-09-23T11:02:00.897Z,8.97
2018-09-23T11:04:28.668Z,9.00
2018-09-23T11:06:56.507Z,8.73
2018-09-23T11:09:24.274Z,8.50
2018-09-23T11:11:52.039Z,8.63
2018-09-23T11:14:19.851Z,8.87
2018-09-23T11:16:47.634Z,8.67
2018-09-23T11:19:15.431Z,9.57
2018-09-23T11:21:43.190Z,8.40
2018-09-23T11:24:11.115Z,9.23
2018-09-23T11:26:38.872Z,8.57
2018-09-23T11:29:06.758Z,8.07
2018-09-23T11:31:34.536Z,8.23
2018-09-23T11:34:02.371Z,9.00
2018-09-23T11:36:30.154Z,8.13
2018-09-23T11:38:57.926Z,8.47
2018-09-23T11:41:25.864Z,8.13
2018-09-23T11:43:53.679Z,8.20
2018-09-23T11:46:21.570Z,8.27
2018-09-23T11:48:49.807Z,7.57
2018-09-23T11:51:17.606Z,8.20
2018-09-23T11:53:45.492Z,8.63
2018-09-23T11:56:13.265Z,8.27
2018-09-23T11:58:41.097Z,7.90
2018-09-23T12:01:08.948Z,8.17
2018-09-23T12:03:36.736Z,7.90
2018-09-23T12:06:04.510Z,7.60
2018-09-23T12:08:32.346Z,7.37
2018-09-23T12:11:00.186Z,7.83
2018-09-23T12:13:28.071Z,7.97
2018-09-23T12:15:55.911Z,7.60
2018-09-23T12:18:23.727Z,7.17
2018-09-23T12:20:51.529Z,7.40
2018-09-23T12:23:19.586Z,7.70
2018-09-23T12:25:47.457Z,8.13
2018-09-23T12:28:15.243Z,8.80
2018-09-23T12:30:43.091Z,7.13
2018-09-23T12:33:10.911Z,8.40
2018-09-23T12:35:38.739Z,7.13
2018-09-23T12:38:06.534Z,7.27
2018-09-23T12:40:34.303Z,7.77
2018-09-23T12:43:02.122Z,7.43
2018-09-23T12:45:29.919Z,7.63
2018-09-23T12:47:57.775Z,8.10
2018-09-23T12:50:25.551Z,7.50
2018-09-23T12:52:53.374Z,6.77
2018-09-23T12:55:21.257Z,7.37
2018-09-23T12:57:49.039Z,7.93
2018-09-23T13:00:16.839Z,7.47
2018-09-23T13:02:44.595Z,7.07
2018-09-23T13:05:12.447Z,7.17
2018-09-23T13:07:40.225Z,6.90
2018-09-23T13:10:08.107Z,7.03
2018-09-23T13:12:36.035Z,7.80
2018-09-23T13:15:03.918Z,7.07
2018-09-23T13:17:31.679Z,7.70
2018-09-23T13:19:59.494Z,8.20
2018-09-23T13:22:27.271Z,7.43
2018-09-23T13:24:55.085Z,7.53
2018-09-23T13:27:22.858Z,7.23
2018-09-23T13:29:50.639Z,7.23
2018-09-23T13:32:18.483Z,7.50
2018-09-23T13:34:46.274Z,7.50
2018-09-23T13:37:14.122Z,8.07
2018-09-23T13:39:41.934Z,7.90
2018-09-23T13:42:09.736Z,8.13
2018-09-23T13:44:37.532Z,8.00
2018-09-23T13:47:05.342Z,7.87
2018-09-23T13:49:33.127Z,8.03
2018-09-23T13:52:00.919Z,8.57
2018-09-23T13:54:28.864Z,8.27
2018-09-23T13:56:56.693Z,8.87
2018-09-23T13:59:24.485Z,8.20
2018-09-23T14:01:52.273Z,8.03
2018-09-23T14:04:20.033Z,8.00
2018-09-23T14:06:47.814Z,8.40
2018-09-23T14:09:15.673Z,8.33
2018-09-23T14:11:43.531Z,7.40
2018-09-23T14:14:11.368Z,8.40
2018-09-23T14:16:39.226Z,8.67
2018-09-23T14:19:07.018Z,7.97
2018-09-23T14:21:34.782Z,8.17
2018-09-23T14:24:02.565Z,9.23
2018-09-23T14:26:30.386Z,8.37
2018-09-23T14:28:58.201Z,7.60
2018-09-23T14:31:25.959Z,8.93
2018-09-23T14:33:53.743Z,8.73
2018-09-23T14:36:21.629Z,8.83
2018-09-23T14:38:49.523Z,8.63
2018-09-23T14:41:17.305Z,8.97
2018-09-23T14:43:45.083Z,8.90
2018-09-23T14:46:12.871Z,8.97
2018-09-23T14:48:40.650Z,8.93
2018-09-23T14:51:08.487Z,8.47
2018-09-23T14:53:36.294Z,9.10
2018-09-23T14:56:04.144Z,8.80
2018-09-23T14:58:31.907Z,8.90
2018-09-23T15:00:59.760Z,8.80
2018-09-23T15:03:27.526Z,9.10
2018-09-23T15:05:55.328Z,9.20
2018-09-23T15:08:23.120Z,9.07
2018-09-23T15:10:50.914Z,9.27
2018-09-23T15:13:18.699Z,10.77
2018-09-23T15:15:46.467Z,9.97
2018-09-23T15:18:14.309Z,9.27
2018-09-23T15:20:42.074Z,9.07
2018-09-23T15:23:09.959Z,10.13
2018-09-23T15:25:37.729Z,9.10
2018-09-23T15:28:05.551Z,10.03
2018-09-23T15:30:33.347Z,9.70
2018-09-23T15:33:01.117Z,9.67
2018-09-23T15:35:28.923Z,10.00
2018-09-23T15:38:06.057Z,10.30
2018-09-23T15:40:33.944Z,9.20
2018-09-23T15:43:01.735Z,9.30
2018-09-23T15:45:29.670Z,9.73
2018-09-23T15:47:57.851Z,9.57
2018-09-23T15:50:25.633Z,9.67
2018-09-23T15:52:53.527Z,10.27
2018-09-23T15:55:21.298Z,10.00
2018-09-23T15:57:49.119Z,10.23
2018-09-23T16:00:17.030Z,10.47
2018-09-23T16:02:44.859Z,10.37
2018-09-23T16:05:14.076Z,10.80
2018-09-23T16:07:41.930Z,11.47
2018-09-23T16:10:09.917Z,11.37
2018-09-23T16:12:37.798Z,11.33
2018-09-23T16:15:05.712Z,10.80
2018-09-23T16:17:33.489Z,11.30
2018-09-23T16:20:01.307Z,10.97
2018-09-23T16:22:29.101Z,13.10
2018-09-23T16:24:56.912Z,17.47
2018-09-23T16:27:24.707Z,12.30
2018-09-23T16:29:52.562Z,13.07
2018-09-23T16:32:20.397Z,12.63
2018-09-23T16:34:48.182Z,12.63
2018-09-23T16:37:16.063Z,12.00
2018-09-23T16:39:43.839Z,12.33
2018-09-23T16:42:11.770Z,13.67
2018-09-23T16:44:39.639Z,15.93
2018-09-23T16:47:07.608Z,13.00
2018-09-23T16:49:35.437Z,14.93
2018-09-23T16:52:03.226Z,16.07
2018-09-23T16:54:31.122Z,16.43
2018-09-23T16:56:58.911Z,18.00
2018-09-23T16:59:26.755Z,14.20
2018-09-23T17:01:54.574Z,14.37
2018-09-23T17:04:22.379Z,15.63
2018-09-23T17:06:50.166Z,14.50
2018-09-23T17:09:17.930Z,14.37
2018-09-23T17:11:45.729Z,13.67
2018-09-23T17:14:13.495Z,14.37
2018-09-23T17:16:41.298Z,15.20
2018-09-23T17:19:09.717Z,14.57
2018-09-23T17:21:37.613Z,14.60
2018-09-23T17:24:05.402Z,14.07
2018-09-23T17:26:33.207Z,14.80
2018-09-23T17:29:01.091Z,14.93
2018-09-23T17:31:28.935Z,14.10
2018-09-23T17:33:56.734Z,15.23
2018-09-23T17:36:24.565Z,16.57
2018-09-23T17:38:52.378Z,20.67
2018-09-23T17:41:20.333Z,17.23
2018-09-23T17:43:48.186Z,13.60
2018-09-23T17:46:15.992Z,46.00
2018-09-23T17:48:43.913Z,34.13
2018-09-23T17:51:11.683Z,31.67
2018-09-23T17:53:39.583Z,29.03
2018-09-23T17:56:08.423Z,27.97
2018-09-23T17:58:36.231Z,30.73
2018-09-23T18:01:04.114Z,26.87
2018-09-23T18:03:31.949Z,20.93
2018-09-23T18:05:59.807Z,18.80
2018-09-23T18:08:27.641Z,16.53
2018-09-23T18:10:55.421Z,22.80
2018-09-23T18:13:23.281Z,124.77
2018-09-23T18:15:51.063Z,171.40
2018-09-23T18:18:18.904Z,121.23
2018-09-23T18:20:46.691Z,80.80
2018-09-23T18:23:14.481Z,123.10
2018-09-23T18:25:42.298Z,190.27
2018-09-23T18:28:10.094Z,181.17
2018-09-23T18:30:37.898Z,120.57
2018-09-23T18:33:05.783Z,54.23
2018-09-23T18:35:33.594Z,45.27
2018-09-23T18:38:01.402Z,108.20
2018-09-23T18:40:29.203Z,244.03
2018-09-23T18:42:56.980Z,84.97
2018-09-23T18:45:24.923Z,92.33
2018-09-23T18:47:52.704Z,60.13
2018-09-23T18:50:20.511Z,108.50
2018-09-23T18:52:52.565Z,99.00
2018-09-23T18:55:25.555Z,78.93
2018-09-23T18:57:54.217Z,72.77
2018-09-23T19:00:22.050Z,89.47
2018-09-23T19:02:49.888Z,127.90
2018-09-23T19:05:17.779Z,112.23
2018-09-23T19:07:45.639Z,66.37
2018-09-23T19:10:13.401Z,53.13
2018-09-23T19:12:41.270Z,51.90
2018-09-23T19:15:09.078Z,57.90
2018-09-23T19:17:36.863Z,48.63
2018-09-23T19:20:10.021Z,47.50
2018-09-23T19:22:43.089Z,43.57
2018-09-23T19:25:10.887Z,45.60
2018-09-23T19:27:38.667Z,47.37
2018-09-23T19:30:06.634Z,46.00
2018-09-23T19:32:34.445Z,26.70
2018-09-23T19:35:02.239Z,38.50
2018-09-23T19:37:30.070Z,37.97
2018-09-23T19:39:57.836Z,34.70
2018-09-23T19:42:25.619Z,35.33
2018-09-23T19:44:53.377Z,36.10
2018-09-23T19:47:21.187Z,36.77
2018-09-23T19:49:48.968Z,37.50
2018-09-23T19:52:16.841Z,36.93
2018-09-23T19:54:44.637Z,36.73
2018-09-23T19:57:12.402Z,33.80
2018-09-23T19:59:40.178Z,35.97
2018-09-23T20:02:07.943Z,26.50
2018-09-23T20:04:35.784Z,28.83
2018-09-23T20:07:03.627Z,29.00
2018-09-23T20:09:31.446Z,23.33
2018-09-23T20:11:59.233Z,21.60
2018-09-23T20:14:27.098Z,21.73
2018-09-23T20:16:54.853Z,23.50
2018-09-23T20:19:22.661Z,21.67
2018-09-23T20:21:50.451Z,23.60
2018-09-23T20:24:18.203Z,24.23
2018-09-23T20:26:46.066Z,21.07
2018-09-23T20:29:13.850Z,19.73
2018-09-23T20:31:41.683Z,19.00
2018-09-23T20:34:09.507Z,16.77
2018-09-23T20:36:37.271Z,15.50
2018-09-23T20:39:06.678Z,15.50
2018-09-23T20:41:34.474Z,12.60
2018-09-23T20:44:02.266Z,13.90
2018-09-23T20:46:30.046Z,13.50
2018-09-23T20:48:57.847Z,16.07
2018-09-23T20:51:25.598Z,17.70
2018-09-23T20:53:53.446Z,19.60
2018-09-23T20:56:21.235Z,19.63
2018-09-23T20:58:49.055Z,21.40
2018-09-23T21:01:16.839Z,20.40
2018-09-23T21:03:44.614Z,19.53
2018-09-23T21:06:12.463Z,17.80
2018-09-23T21:08:40.230Z,16.60
2018-09-23T21:11:07.986Z,13.83
2018-09-23T21:13:35.758Z,13.53
2018-09-23T21:16:03.555Z,13.03
2018-09-23T21:18:31.427Z,13.23
2018-09-23T21:20:59.261Z,13.37
2018-09-23T21:23:27.135Z,13.97
2018-09-23T21:25:54.903Z,12.53
2018-09-23T21:28:22.709Z,13.03
2018-09-23T21:30:50.495Z,12.73
2018-09-23T21:33:18.351Z,17.43
2018-09-23T21:35:46.232Z,16.87
2018-09-23T21:38:13.977Z,16.13
2018-09-23T21:40:41.885Z,15.40
2018-09-23T21:43:09.650Z,14.43
2018-09-23T21:45:37.613Z,13.40
2018-09-23T21:48:05.451Z,13.20
2018-09-23T21:50:33.266Z,12.87
2018-09-23T21:53:01.086Z,14.00
2018-09-23T21:55:28.854Z,13.70
2018-09-23T21:57:56.637Z,14.27
2018-09-23T22:00:28.601Z,13.23
2018-09-23T22:02:56.409Z,14.97
2018-09-23T22:05:24.170Z,14.23
2018-09-23T22:07:52.025Z,13.83
2018-09-23T22:10:19.789Z,13.93
2018-09-23T22:12:47.554Z,15.40
2018-09-23T22:15:21.579Z,13.87
2018-09-23T22:17:49.342Z,15.17
2018-09-23T22:20:17.141Z,16.50
2018-09-23T22:22:45.250Z,17.17
2018-09-23T22:25:13.030Z,16.30
2018-09-23T22:27:41.016Z,16.40
2018-09-23T22:30:08.903Z,14.67
2018-09-23T22:32:36.944Z,17.33
2018-09-23T22:35:05.363Z,16.93
2018-09-23T22:37:33.186Z,15.83
2018-09-23T22:40:00.990Z,16.43
2018-09-23T22:42:28.830Z,16.00
2018-09-23T22:44:56.617Z,16.47
2018-09-23T22:47:24.467Z,17.20
2018-09-23T22:49:52.265Z,16.07
2018-09-23T22:52:20.090Z,16.07
2018-09-23T22:54:47.922Z,16.37
2018-09-23T22:57:15.954Z,16.70
2018-09-23T22:59:43.743Z,16.33
2018-09-23T23:02:11.559Z,15.47
2018-09-23T23:04:39.377Z,16.47
2018-09-23T23:07:07.133Z,16.40
2018-09-23T23:09:35.136Z,16.90
2018-09-23T23:12:03.136Z,16.97
2018-09-23T23:17:05.090Z,16.10
2018-09-23T23:19:32.984Z,16.40
2018-09-23T23:22:00.815Z,17.57
2018-09-23T23:24:28.652Z,17.83
2018-09-23T23:26:56.496Z,16.93
2018-09-23T23:29:24.261Z,17.03
2018-09-23T23:31:52.055Z,16.50
2018-09-23T23:34:19.827Z,17.40
2018-09-23T23:36:47.669Z,17.97
2018-09-23T23:39:15.443Z,17.37
2018-09-23T23:41:43.333Z,16.97
2018-09-23T23:44:11.093Z,15.93
2018-09-23T23:46:39.017Z,16.97
2018-09-23T23:49:07.276Z,17.07
2018-09-23T23:51:35.041Z,17.00
2018-09-23T23:54:02.823Z,17.07
2018-09-23T23:56:30.685Z,16.83
2018-09-23T23:58:58.590Z,16.30
